Time;durP1;ratioP1;P1;durP2;ratioP2;P2;SDS_P1;SDS_P2;PMS_P1;PMS_P2;Temp;Humidity;BMP_temperature;BMP_pressure;BME280_temperature;BME280_humidity;BME280_pressure;Samples;Min_cycle;Max_cycle;Signal;HPM_P1;HPM_P2
2022/06/26 00:02:04;;;;;;;;;;;20.40;80.50;;;;;;6097295;23;19928;-82
2022/06/26 00:04:31;;;;;;;;;;;20.40;80.10;;;;;;6095168;23;19921;-82
2022/06/26 00:07:00;;;;;;;;;;;20.30;80.00;;;;;;6096385;23;19921;-81
2022/06/26 00:09:28;;;;;;;;;;;20.30;80.00;;;;;;6094703;23;20262;-81
2022/06/26 00:11:54;;;;;;;;;;;20.30;80.70;;;;;;6096276;23;19921;-82
2022/06/26 00:14:21;;;;;;;;;;;20.30;80.80;;;;;;6095942;23;19921;-82
2022/06/26 00:16:48;;;;;;;;;;;20.30;80.90;;;;;;6095157;23;20323;-81
2022/06/26 00:19:15;;;;;;;;;;;20.30;80.60;;;;;;6097205;23;19922;-81
2022/06/26 00:21:42;;;;;;;;;;;20.30;80.50;;;;;;6096229;23;19945;-82
2022/06/26 00:24:09;;;;;;;;;;;20.30;80.80;;;;;;6115803;23;19925;-82
2022/06/26 00:26:35;;;;;;;;;;;20.20;80.60;;;;;;6098353;23;19921;-81
2022/06/26 00:29:02;;;;;;;;;;;20.20;80.70;;;;;;6083405;23;19925;-82
2022/06/26 00:31:29;;;;;;;;;;;20.20;80.70;;;;;;6120928;23;19921;-82
2022/06/26 00:33:56;;;;;;;;;;;20.10;80.60;;;;;;6119196;23;19925;-82
2022/06/26 00:36:23;;;;;;;;;;;20.10;80.40;;;;;;6094907;23;20334;-81
2022/06/26 00:38:49;;;;;;;;;;;20.10;80.10;;;;;;6075987;23;20332;-81
2022/06/26 00:41:16;;;;;;;;;;;20.00;80.10;;;;;;6126342;23;19972;-81
2022/06/26 00:43:43;;;;;;;;;;;20.00;80.50;;;;;;6111829;23;19921;-81
2022/06/26 00:46:10;;;;;;;;;;;20.00;80.70;;;;;;6116790;23;19988;-82
2022/06/26 00:48:37;;;;;;;;;;;19.90;80.90;;;;;;6095700;23;20396;-82
2022/06/26 00:51:04;;;;;;;;;;;19.80;82.50;;;;;;6126169;23;19921;-82
2022/06/26 00:53:31;;;;;;;;;;;19.80;81.40;;;;;;6125308;23;19924;-82
2022/06/26 00:55:58;;;;;;;;;;;19.70;81.40;;;;;;6125993;23;20239;-82
2022/06/26 00:58:24;;;;;;;;;;;19.70;81.70;;;;;;6126151;23;19928;-82
2022/06/26 01:00:51;;;;;;;;;;;19.70;81.50;;;;;;6099949;23;19929;-83
2022/06/26 01:03:18;;;;;;;;;;;19.60;81.10;;;;;;6100620;23;19928;-82
2022/06/26 01:05:45;;;;;;;;;;;19.60;81.10;;;;;;6111843;23;19957;-82
2022/06/26 01:08:12;;;;;;;;;;;19.60;81.30;;;;;;6116611;23;20339;-81
2022/06/26 01:10:39;;;;;;;;;;;19.60;82.10;;;;;;6121622;23;19968;-81
2022/06/26 01:13:07;;;;;;;;;;;19.50;81.90;;;;;;6101213;23;19943;-82
2022/06/26 01:15:34;;;;;;;;;;;19.50;82.40;;;;;;6111727;23;19929;-82
2022/06/26 01:18:01;;;;;;;;;;;19.50;82.60;;;;;;6118967;23;20390;-82
2022/06/26 01:20:28;;;;;;;;;;;19.50;82.80;;;;;;6094479;23;19920;-81
2022/06/26 01:23:02;;;;;;;;;;;19.40;82.90;;;;;;6075746;23;19925;-81
2022/06/26 01:25:41;;;;;;;;;;;19.40;83.00;;;;;;6113307;23;19921;-82
2022/06/26 01:28:08;;;;;;;;;;;19.40;83.00;;;;;;6094213;23;19921;-82
2022/06/26 01:30:35;;;;;;;;;;;19.30;83.70;;;;;;6100001;23;19979;-81
2022/06/26 01:33:02;;;;;;;;;;;19.30;83.50;;;;;;6095590;23;19921;-82
2022/06/26 01:35:29;;;;;;;;;;;19.30;83.50;;;;;;6095034;23;20306;-82
2022/06/26 01:37:56;;;;;;;;;;;19.30;83.80;;;;;;6095545;23;19925;-82
2022/06/26 01:40:22;;;;;;;;;;;19.30;84.80;;;;;;6095241;23;20262;-83
2022/06/26 01:42:49;;;;;;;;;;;19.20;84.80;;;;;;6093673;23;19949;-82
2022/06/26 01:45:16;;;;;;;;;;;19.20;86.30;;;;;;6075860;23;19973;-82
2022/06/26 01:47:42;;;;;;;;;;;19.30;87.50;;;;;;6037398;23;20363;-82
2022/06/26 01:50:10;;;;;;;;;;;19.30;87.40;;;;;;6036061;23;20431;-83
2022/06/26 01:52:36;;;;;;;;;;;19.30;86.80;;;;;;6037333;23;19921;-82
2022/06/26 01:55:03;;;;;;;;;;;19.30;86.20;;;;;;6036443;23;19925;-82
2022/06/26 01:57:30;;;;;;;;;;;19.30;86.30;;;;;;6037799;23;19922;-82
2022/06/26 01:59:57;;;;;;;;;;;19.40;86.30;;;;;;6036010;23;19978;-82
2022/06/26 02:02:24;;;;;;;;;;;19.30;86.20;;;;;;6037246;23;19925;-82
2022/06/26 02:04:51;;;;;;;;;;;19.40;86.70;;;;;;6036628;23;20237;-83
2022/06/26 02:07:18;;;;;;;;;;;19.40;86.90;;;;;;6037216;23;20311;-82
2022/06/26 02:15:15;;;;;;;;;;;19.40;85.90;;;;;;6065914;23;19925;-81
2022/06/26 02:17:42;;;;;;;;;;;19.50;85.80;;;;;;6090275;23;19921;-81
2022/06/26 02:20:09;;;;;;;;;;;19.50;85.40;;;;;;6064681;23;19934;-80
2022/06/26 02:22:36;;;;;;;;;;;19.60;85.20;;;;;;6060843;23;19974;-81
2022/06/26 02:25:04;;;;;;;;;;;19.60;85.10;;;;;;6060191;23;19929;-81
2022/06/26 02:27:30;;;;;;;;;;;19.60;85.30;;;;;;6065223;23;19929;-80
2022/06/26 02:29:58;;;;;;;;;;;19.70;85.70;;;;;;6065608;23;20414;-81
2022/06/26 02:32:25;;;;;;;;;;;19.60;85.70;;;;;;6065110;23;19926;-81
2022/06/26 02:34:51;;;;;;;;;;;19.60;85.60;;;;;;6064933;23;19926;-81
2022/06/26 02:37:18;;;;;;;;;;;19.60;86.30;;;;;;6088779;23;19948;-80
2022/06/26 02:39:45;;;;;;;;;;;19.50;85.70;;;;;;6089619;23;19925;-81
2022/06/26 02:42:11;;;;;;;;;;;19.50;85.70;;;;;;6066356;23;19922;-81
2022/06/26 02:44:38;;;;;;;;;;;19.50;86.40;;;;;;6065164;23;19922;-80
2022/06/26 02:47:05;;;;;;;;;;;19.40;86.30;;;;;;6089340;23;20114;-80
2022/06/26 02:49:32;;;;;;;;;;;19.30;85.90;;;;;;6088093;23;20224;-81
2022/06/26 02:51:58;;;;;;;;;;;19.30;85.60;;;;;;6089762;23;19974;-80
2022/06/26 02:54:25;;;;;;;;;;;19.30;85.40;;;;;;6066036;23;20232;-81
2022/06/26 02:56:52;;;;;;;;;;;19.30;85.20;;;;;;6089352;23;19922;-80
2022/06/26 02:59:19;;;;;;;;;;;19.30;85.00;;;;;;6089008;23;19929;-80
2022/06/26 03:01:45;;;;;;;;;;;19.30;84.90;;;;;;6090811;23;20398;-80
2022/06/26 03:04:12;;;;;;;;;;;19.40;84.80;;;;;;6090619;23;20335;-80
2022/06/26 03:06:39;;;;;;;;;;;19.40;84.80;;;;;;6091580;23;19941;-81
2022/06/26 03:09:06;;;;;;;;;;;19.40;84.90;;;;;;6091116;23;19925;-81
2022/06/26 03:11:34;;;;;;;;;;;19.50;84.80;;;;;;6090842;23;19925;-80
2022/06/26 03:14:00;;;;;;;;;;;19.50;84.90;;;;;;6091131;23;20259;-80
2022/06/26 03:16:27;;;;;;;;;;;19.50;85.00;;;;;;6090520;23;20343;-80
2022/06/26 03:18:54;;;;;;;;;;;19.50;85.20;;;;;;6091330;23;19953;-80
2022/06/26 03:21:21;;;;;;;;;;;19.50;85.40;;;;;;6090322;23;19926;-81
2022/06/26 03:24:03;;;;;;;;;;;19.40;85.60;;;;;;6090959;23;19922;-80
2022/06/26 03:26:34;;;;;;;;;;;19.40;86.00;;;;;;6090676;23;20406;-80
2022/06/26 03:29:01;;;;;;;;;;;19.40;86.30;;;;;;6068984;23;19921;-80
2022/06/26 03:31:27;;;;;;;;;;;19.30;86.30;;;;;;6065483;23;19994;-81
2022/06/26 03:33:55;;;;;;;;;;;19.30;86.40;;;;;;6067535;23;19929;-80
2022/06/26 03:36:22;;;;;;;;;;;19.20;86.40;;;;;;6065925;23;19922;-80
2022/06/26 03:38:49;;;;;;;;;;;19.20;86.30;;;;;;6062058;23;19973;-81
2022/06/26 03:41:16;;;;;;;;;;;19.20;86.20;;;;;;6086615;23;19981;-80
2022/06/26 03:43:43;;;;;;;;;;;19.20;86.00;;;;;;6068663;23;20291;-80
2022/06/26 03:46:10;;;;;;;;;;;19.20;85.90;;;;;;6090768;23;19977;-80
2022/06/26 03:48:37;;;;;;;;;;;19.10;85.80;;;;;;6067175;23;19993;-80
2022/06/26 03:51:04;;;;;;;;;;;19.10;85.70;;;;;;6091368;23;19929;-80
2022/06/26 03:53:32;;;;;;;;;;;19.20;85.60;;;;;;6067840;23;20236;-80
2022/06/26 03:55:59;;;;;;;;;;;19.10;85.50;;;;;;6067107;23;19922;-80
2022/06/26 03:58:26;;;;;;;;;;;19.10;85.30;;;;;;6063659;23;19954;-80
2022/06/26 04:00:53;;;;;;;;;;;19.10;85.20;;;;;;6067285;23;19922;-80
2022/06/26 04:03:20;;;;;;;;;;;19.10;85.20;;;;;;6066214;23;19949;-80
2022/06/26 04:05:47;;;;;;;;;;;19.00;85.00;;;;;;6062364;23;19950;-80
2022/06/26 04:08:14;;;;;;;;;;;19.10;85.00;;;;;;6085074;23;19923;-80
2022/06/26 04:10:42;;;;;;;;;;;19.00;84.90;;;;;;6090813;23;19943;-80
2022/06/26 04:13:09;;;;;;;;;;;19.00;84.90;;;;;;6061093;23;19930;-80
2022/06/26 04:15:37;;;;;;;;;;;19.00;85.00;;;;;;6089510;23;19952;-80
2022/06/26 04:18:04;;;;;;;;;;;19.00;85.10;;;;;;6067799;23;19925;-80
2022/06/26 04:20:31;;;;;;;;;;;19.00;85.20;;;;;;6067505;23;19989;-80
2022/06/26 04:22:58;;;;;;;;;;;19.00;85.20;;;;;;6090493;23;20347;-80
2022/06/26 04:25:25;;;;;;;;;;;19.00;85.40;;;;;;6067690;23;19930;-80
2022/06/26 04:27:52;;;;;;;;;;;19.00;85.40;;;;;;6068378;23;20251;-80
2022/06/26 04:30:19;;;;;;;;;;;19.00;85.70;;;;;;6089626;23;19921;-80
2022/06/26 04:32:46;;;;;;;;;;;19.00;85.80;;;;;;6061662;23;19958;-80
2022/06/26 04:35:13;;;;;;;;;;;19.00;85.90;;;;;;6061338;23;19932;-80
2022/06/26 04:37:40;;;;;;;;;;;19.00;86.00;;;;;;6089765;23;20293;-80
2022/06/26 04:40:08;;;;;;;;;;;19.00;86.20;;;;;;6061228;23;19922;-80
2022/06/26 04:42:35;;;;;;;;;;;19.00;86.20;;;;;;6088847;23;19992;-80
2022/06/26 04:45:02;;;;;;;;;;;19.10;86.20;;;;;;6090283;23;19956;-81
2022/06/26 04:47:29;;;;;;;;;;;19.10;86.20;;;;;;6064077;23;19929;-80
2022/06/26 04:49:56;;;;;;;;;;;19.10;86.30;;;;;;6065890;23;19973;-81
2022/06/26 04:52:23;;;;;;;;;;;19.20;86.40;;;;;;6066106;23;19925;-80
2022/06/26 04:54:50;;;;;;;;;;;19.20;86.40;;;;;;6089569;23;19953;-81
2022/06/26 04:57:17;;;;;;;;;;;19.20;86.20;;;;;;6065991;23;19973;-80
2022/06/26 04:59:44;;;;;;;;;;;19.30;86.00;;;;;;6089378;23;19925;-80
2022/06/26 05:02:11;;;;;;;;;;;19.30;85.70;;;;;;6089874;23;20258;-80
2022/06/26 05:04:38;;;;;;;;;;;19.30;85.60;;;;;;6064893;23;19977;-80
2022/06/26 05:07:05;;;;;;;;;;;19.40;85.60;;;;;;6066715;23;19926;-80
2022/06/26 05:09:32;;;;;;;;;;;19.40;85.40;;;;;;6065449;23;19922;-80
2022/06/26 05:11:58;;;;;;;;;;;19.50;85.10;;;;;;6061638;23;19922;-80
2022/06/26 05:14:26;;;;;;;;;;;19.60;85.10;;;;;;6063731;23;19921;-80
2022/06/26 05:16:52;;;;;;;;;;;19.70;85.00;;;;;;6061639;23;20400;-80
2022/06/26 05:19:19;;;;;;;;;;;19.70;84.70;;;;;;6060830;23;19926;-81
2022/06/26 05:21:55;;;;;;;;;;;19.80;83.90;;;;;;6066668;23;19922;-80
2022/06/26 05:24:22;;;;;;;;;;;19.90;82.70;;;;;;6089129;23;19949;-80
2022/06/26 05:26:48;;;;;;;;;;;20.00;81.50;;;;;;6067643;23;19921;-80
2022/06/26 05:29:15;;;;;;;;;;;20.10;80.20;;;;;;6065576;23;19981;-80
2022/06/26 05:31:42;;;;;;;;;;;20.20;79.70;;;;;;6089274;23;19925;-80
2022/06/26 05:34:09;;;;;;;;;;;20.20;79.60;;;;;;6089827;23;19957;-80
2022/06/26 05:36:36;;;;;;;;;;;20.30;79.60;;;;;;6089549;23;19928;-80
2022/06/26 05:39:02;;;;;;;;;;;20.30;79.50;;;;;;6089926;23;19922;-80
2022/06/26 05:41:29;;;;;;;;;;;20.40;79.90;;;;;;6089172;23;19926;-80
2022/06/26 05:43:57;;;;;;;;;;;20.40;80.00;;;;;;6089397;23;19973;-80
2022/06/26 05:46:24;;;;;;;;;;;20.50;81.70;;;;;;6094054;23;19972;-80
2022/06/26 05:48:51;;;;;;;;;;;20.50;81.30;;;;;;6094973;23;19925;-80
2022/06/26 05:51:17;;;;;;;;;;;20.50;80.90;;;;;;6071032;23;19953;-80
2022/06/26 05:53:44;;;;;;;;;;;20.60;80.60;;;;;;6086832;23;20258;-80
2022/06/26 05:56:11;;;;;;;;;;;20.70;80.50;;;;;;6089476;23;19953;-80
2022/06/26 05:58:38;;;;;;;;;;;20.80;79.70;;;;;;6094115;23;20266;-80
2022/06/26 06:01:04;;;;;;;;;;;20.80;76.20;;;;;;6094596;23;20354;-80
2022/06/26 06:03:31;;;;;;;;;;;20.90;75.30;;;;;;6094042;23;19972;-80
2022/06/26 06:05:58;;;;;;;;;;;21.00;74.30;;;;;;6095905;23;19927;-81
2022/06/26 06:08:25;;;;;;;;;;;21.10;74.70;;;;;;6093856;23;19932;-80
2022/06/26 06:10:52;;;;;;;;;;;21.20;73.40;;;;;;6094690;23;19976;-81
2022/06/26 06:13:19;;;;;;;;;;;21.30;73.30;;;;;;6094365;23;19981;-80
2022/06/26 06:15:46;;;;;;;;;;;21.40;72.90;;;;;;6118009;23;19972;-80
2022/06/26 06:18:12;;;;;;;;;;;21.50;72.40;;;;;;6092808;23;19928;-80
2022/06/26 06:20:39;;;;;;;;;;;21.60;71.50;;;;;;6123747;23;19925;-80
2022/06/26 06:23:26;;;;;;;;;;;21.60;71.10;;;;;;6111056;23;19948;-80
2022/06/26 06:25:53;;;;;;;;;;;21.70;70.80;;;;;;6099351;23;20298;-80
2022/06/26 06:28:20;;;;;;;;;;;21.80;70.20;;;;;;6100047;23;19988;-80
2022/06/26 06:30:47;;;;;;;;;;;21.80;70.40;;;;;;6093595;23;19925;-80
2022/06/26 06:33:14;;;;;;;;;;;21.80;71.20;;;;;;6094560;23;19972;-81
2022/06/26 06:35:41;;;;;;;;;;;22.00;72.70;;;;;;6094806;23;20302;-80
2022/06/26 06:38:08;;;;;;;;;;;22.00;71.00;;;;;;6094483;23;19931;-80
2022/06/26 06:40:35;;;;;;;;;;;22.10;71.10;;;;;;6093950;23;19926;-80
2022/06/26 06:43:02;;;;;;;;;;;22.10;71.00;;;;;;6094331;23;20302;-80
2022/06/26 06:45:30;;;;;;;;;;;22.20;68.30;;;;;;6071272;23;19928;-80
2022/06/26 06:47:57;;;;;;;;;;;22.30;67.30;;;;;;6037242;23;19926;-80
2022/06/26 06:50:24;;;;;;;;;;;22.40;66.30;;;;;;6037010;23;20279;-81
2022/06/26 06:52:51;;;;;;;;;;;22.40;66.10;;;;;;6064922;23;20248;-80
2022/06/26 06:55:18;;;;;;;;;;;22.50;66.10;;;;;;6089070;23;19928;-80
2022/06/26 06:57:45;;;;;;;;;;;22.50;66.00;;;;;;6088706;23;19926;-80
2022/06/26 07:00:12;;;;;;;;;;;22.70;65.40;;;;;;6088018;23;19922;-80
2022/06/26 07:02:39;;;;;;;;;;;22.70;64.70;;;;;;6064274;23;19949;-80
2022/06/26 07:05:07;;;;;;;;;;;22.80;64.70;;;;;;6060306;23;19922;-81
2022/06/26 07:07:34;;;;;;;;;;;23.00;64.30;;;;;;6061499;23;19952;-80
2022/06/26 07:10:01;;;;;;;;;;;23.00;64.30;;;;;;6064935;23;19976;-81
2022/06/26 07:12:29;;;;;;;;;;;23.10;64.20;;;;;;6060156;23;19974;-81
2022/06/26 07:14:55;;;;;;;;;;;23.20;64.40;;;;;;6065273;23;19925;-80
2022/06/26 07:17:22;;;;;;;;;;;23.20;64.30;;;;;;6065189;23;19929;-81
2022/06/26 07:19:49;;;;;;;;;;;23.30;64.30;;;;;;6064517;23;19993;-81
2022/06/26 07:22:16;;;;;;;;;;;23.50;64.60;;;;;;6089327;23;19969;-81
2022/06/26 07:24:43;;;;;;;;;;;23.70;63.10;;;;;;6088674;23;19922;-81
2022/06/26 07:27:10;;;;;;;;;;;23.90;63.30;;;;;;6066304;23;19977;-81
2022/06/26 07:29:37;;;;;;;;;;;24.00;61.90;;;;;;6061384;23;19922;-81
2022/06/26 07:32:11;;;;;;;;;;;24.10;61.30;;;;;;6065323;23;19945;-81
2022/06/26 07:34:38;;;;;;;;;;;24.30;61.60;;;;;;6064635;23;19926;-81
2022/06/26 07:37:05;;;;;;;;;;;24.40;59.70;;;;;;6089063;23;20340;-81
2022/06/26 07:39:32;;;;;;;;;;;24.60;60.50;;;;;;6088567;23;19922;-80
2022/06/26 07:41:58;;;;;;;;;;;24.80;59.50;;;;;;6088672;23;19925;-81
2022/06/26 07:44:25;;;;;;;;;;;25.00;57.50;;;;;;6068578;23;20397;-80
2022/06/26 07:46:52;;;;;;;;;;;25.20;58.10;;;;;;6093282;23;19925;-80
2022/06/26 07:49:19;;;;;;;;;;;25.30;56.70;;;;;;6096146;23;19928;-80
2022/06/26 07:51:46;;;;;;;;;;;25.40;55.60;;;;;;6094986;23;19922;-81
2022/06/26 07:54:12;;;;;;;;;;;25.50;56.30;;;;;;6096354;23;19922;-81
2022/06/26 07:56:39;;;;;;;;;;;25.70;55.10;;;;;;6071000;23;19925;-80
2022/06/26 07:59:06;;;;;;;;;;;25.70;55.00;;;;;;6095868;23;19925;-81
2022/06/26 08:01:33;;;;;;;;;;;25.70;55.70;;;;;;6094835;23;19921;-81
2022/06/26 08:04:01;;;;;;;;;;;25.80;56.00;;;;;;6096967;23;19921;-81
2022/06/26 08:06:29;;;;;;;;;;;25.90;56.10;;;;;;6071924;23;19948;-80
2022/06/26 08:08:57;;;;;;;;;;;26.00;55.90;;;;;;6119483;23;19949;-81
2022/06/26 08:11:25;;;;;;;;;;;26.20;53.90;;;;;;6093869;23;19940;-80
2022/06/26 08:13:52;;;;;;;;;;;26.20;54.60;;;;;;6111849;23;20067;-81
2022/06/26 08:16:19;;;;;;;;;;;26.10;54.30;;;;;;6125516;23;19920;-81
2022/06/26 08:18:46;;;;;;;;;;;26.20;54.40;;;;;;6125005;23;19940;-81
2022/06/26 08:23:57;;;;;;;;;;;26.40;55.00;;;;;;6113271;23;20230;-81
2022/06/26 08:26:24;;;;;;;;;;;26.50;54.20;;;;;;6114546;23;19932;-81
2022/06/26 08:28:51;;;;;;;;;;;26.50;53.60;;;;;;6082287;23;19921;-81
2022/06/26 08:31:18;;;;;;;;;;;26.60;54.10;;;;;;6071698;23;19925;-81
2022/06/26 08:33:45;;;;;;;;;;;26.70;54.50;;;;;;6096856;23;19925;-81
2022/06/26 08:36:12;;;;;;;;;;;26.70;54.60;;;;;;6116816;23;19977;-81
2022/06/26 08:38:39;;;;;;;;;;;26.80;55.20;;;;;;6095626;23;19929;-80
2022/06/26 08:41:07;;;;;;;;;;;26.80;54.80;;;;;;6118222;23;19921;-81
2022/06/26 08:43:35;;;;;;;;;;;27.00;53.10;;;;;;6082210;23;20262;-80
2022/06/26 08:46:03;;;;;;;;;;;27.20;53.70;;;;;;6096325;23;19972;-81
2022/06/26 08:48:35;;;;;;;;;;;27.30;53.50;;;;;;6071546;23;20231;-81
2022/06/26 08:51:03;;;;;;;;;;;27.40;52.40;;;;;;6075355;23;19936;-81
2022/06/26 08:53:30;;;;;;;;;;;27.60;53.80;;;;;;6126135;23;19925;-81
2022/06/26 08:55:57;;;;;;;;;;;27.70;52.20;;;;;;6111384;23;19921;-81
2022/06/26 08:58:24;;;;;;;;;;;27.70;51.80;;;;;;6125596;23;19971;-81
2022/06/26 09:00:50;;;;;;;;;;;27.80;52.80;;;;;;6111605;23;20250;-81
2022/06/26 09:03:17;;;;;;;;;;;27.90;52.00;;;;;;6125349;23;19921;-80
2022/06/26 09:05:44;;;;;;;;;;;28.00;51.50;;;;;;6111628;23;19972;-80
2022/06/26 09:08:18;;;;;;;;;;;28.20;51.30;;;;;;6117341;23;19976;-81
2022/06/26 09:10:49;;;;;;;;;;;28.30;51.20;;;;;;6095396;23;19924;-80
2022/06/26 09:13:16;;;;;;;;;;;28.40;50.00;;;;;;6116905;23;20228;-81
2022/06/26 09:15:43;;;;;;;;;;;28.70;50.20;;;;;;6094774;23;19961;-80
2022/06/26 09:18:11;;;;;;;;;;;28.90;50.00;;;;;;6099812;23;19929;-81
2022/06/26 09:20:49;;;;;;;;;;;29.00;48.50;;;;;;6100585;23;19925;-80
2022/06/26 09:23:15;;;;;;;;;;;28.90;49.80;;;;;;6124918;23;19980;-82
2022/06/26 09:25:43;;;;;;;;;;;29.00;49.60;;;;;;6100235;23;19925;-81
2022/06/26 09:28:14;;;;;;;;;;;29.00;47.70;;;;;;6111391;23;19925;-82
2022/06/26 09:30:48;;;;;;;;;;;29.10;47.90;;;;;;6124959;23;20397;-82
2022/06/26 09:33:15;;;;;;;;;;;29.10;48.30;;;;;;6110590;23;19976;-81
2022/06/26 09:35:42;;;;;;;;;;;29.20;47.60;;;;;;6114165;23;19972;-80
2022/06/26 09:38:09;;;;;;;;;;;29.20;46.20;;;;;;6097630;23;19925;-82
2022/06/26 09:40:36;;;;;;;;;;;29.30;48.60;;;;;;6115059;23;20258;-82
2022/06/26 09:43:03;;;;;;;;;;;29.40;45.80;;;;;;6096005;23;19921;-81
2022/06/26 09:45:39;;;;;;;;;;;29.40;46.50;;;;;;6116386;23;19958;-82
2022/06/26 09:48:08;;;;;;;;;;;29.40;47.50;;;;;;6122281;23;19925;-81
2022/06/26 09:50:35;;;;;;;;;;;29.40;46.90;;;;;;6115340;23;19929;-82
2022/06/26 09:53:02;;;;;;;;;;;29.60;47.00;;;;;;6095688;23;19921;-81
2022/06/26 09:55:30;;;;;;;;;;;29.70;46.80;;;;;;6099582;23;19928;-81
2022/06/26 09:57:57;;;;;;;;;;;29.50;47.10;;;;;;6124094;23;19925;-81
2022/06/26 10:00:24;;;;;;;;;;;29.70;48.70;;;;;;6125308;23;19972;-82
2022/06/26 10:08:22;;;;;;;;;;;29.90;46.60;;;;;;6124326;23;19921;-81
2022/06/26 10:10:49;;;;;;;;;;;29.80;46.50;;;;;;6124742;23;20390;-81
2022/06/26 10:13:23;;;;;;;;;;;29.80;46.80;;;;;;6110864;23;20009;-80
2022/06/26 10:15:50;;;;;;;;;;;29.90;48.00;;;;;;6116072;23;19972;-81
2022/06/26 10:18:19;;;;;;;;;;;30.00;47.60;;;;;;6090215;23;20302;-80
2022/06/26 10:20:47;;;;;;;;;;;30.00;47.00;;;;;;6099099;23;19921;-80
2022/06/26 10:23:33;;;;;;;;;;;29.90;46.50;;;;;;6098460;23;19921;-80
2022/06/26 10:26:15;;;;;;;;;;;29.70;48.00;;;;;;6070502;23;19976;-80
2022/06/26 10:29:01;;;;;;;;;;;29.60;47.80;;;;;;6069801;23;20314;-81
2022/06/26 10:31:29;;;;;;;;;;;29.80;50.00;;;;;;6093385;23;19921;-80
2022/06/26 10:33:56;;;;;;;;;;;29.90;48.40;;;;;;6082080;23;19977;-81
2022/06/26 10:36:23;;;;;;;;;;;30.10;47.30;;;;;;6094592;23;20401;-81
2022/06/26 10:38:51;;;;;;;;;;;30.10;47.30;;;;;;6124773;23;19972;-81
2022/06/26 10:44:06;;;;;;;;;;;30.30;46.50;;;;;;6123671;23;20262;-81
2022/06/26 10:46:38;;;;;;;;;;;30.60;46.70;;;;;;6112492;23;19949;-80
2022/06/26 10:49:06;;;;;;;;;;;30.60;46.30;;;;;;6069224;23;19925;-80
2022/06/26 10:51:34;;;;;;;;;;;30.70;46.20;;;;;;6095368;23;19929;-80
2022/06/26 10:54:01;;;;;;;;;;;30.80;46.40;;;;;;6093417;23;19933;-81
2022/06/26 10:56:29;;;;;;;;;;;30.80;44.40;;;;;;6094024;23;19921;-81
2022/06/26 10:59:00;;;;;;;;;;;30.80;45.60;;;;;;6092979;23;19945;-81
2022/06/26 11:01:27;;;;;;;;;;;30.60;44.80;;;;;;6094158;23;20251;-81
2022/06/26 11:03:54;;;;;;;;;;;30.70;47.30;;;;;;6093430;23;20649;-81
2022/06/26 11:06:24;;;;;;;;;;;30.60;45.30;;;;;;6093957;23;19921;-80
2022/06/26 11:08:52;;;;;;;;;;;30.70;44.50;;;;;;6093181;23;19945;-80
2022/06/26 11:11:22;;;;;;;;;;;30.70;46.30;;;;;;6094216;23;19921;-81
2022/06/26 11:13:52;;;;;;;;;;;30.90;46.90;;;;;;6093364;23;19972;-80
2022/06/26 11:16:38;;;;;;;;;;;30.80;46.40;;;;;;6117863;23;19932;-80
2022/06/26 11:19:05;;;;;;;;;;;30.80;46.30;;;;;;6093510;23;19960;-81
2022/06/26 11:21:32;;;;;;;;;;;30.90;46.70;;;;;;6094222;23;19922;-81
2022/06/26 11:24:00;;;;;;;;;;;31.00;47.80;;;;;;6094873;23;19960;-81
2022/06/26 11:26:27;;;;;;;;;;;31.00;45.90;;;;;;6095775;23;19973;-80
2022/06/26 11:28:58;;;;;;;;;;;30.90;46.20;;;;;;6095216;23;19922;-80
2022/06/26 11:31:26;;;;;;;;;;;30.90;46.00;;;;;;6095944;23;19929;-80
2022/06/26 11:33:54;;;;;;;;;;;31.00;45.90;;;;;;6095328;23;19945;-81
2022/06/26 11:36:22;;;;;;;;;;;31.30;46.40;;;;;;6095924;23;19921;-81
2022/06/26 11:38:53;;;;;;;;;;;31.50;45.80;;;;;;6095173;23;19965;-80
2022/06/26 11:41:21;;;;;;;;;;;31.80;46.00;;;;;;6096113;23;20310;-80
2022/06/26 11:43:52;;;;;;;;;;;32.00;45.80;;;;;;6094941;23;19944;-81
2022/06/26 11:46:19;;;;;;;;;;;32.30;44.30;;;;;;6095820;23;19921;-81
2022/06/26 11:48:49;;;;;;;;;;;32.30;44.10;;;;;;6094999;23;20394;-80
2022/06/26 11:51:18;;;;;;;;;;;32.20;43.30;;;;;;6097165;23;19972;-81
2022/06/26 11:53:46;;;;;;;;;;;32.20;44.30;;;;;;6095200;23;19925;-80
2022/06/26 11:56:21;;;;;;;;;;;32.00;43.30;;;;;;6096830;23;20327;-81
2022/06/26 11:58:49;;;;;;;;;;;32.00;44.40;;;;;;6095128;23;20342;-81
2022/06/26 12:01:17;;;;;;;;;;;31.90;45.40;;;;;;6095523;23;19953;-81
2022/06/26 12:03:47;;;;;;;;;;;31.80;44.60;;;;;;6095079;23;19944;-81
2022/06/26 12:06:33;;;;;;;;;;;31.70;46.50;;;;;;6119302;23;19953;-81
2022/06/26 12:09:21;;;;;;;;;;;31.90;45.80;;;;;;6118108;23;19971;-81
2022/06/26 12:11:49;;;;;;;;;;;32.10;45.60;;;;;;6094766;23;19973;-81
2022/06/26 12:14:17;;;;;;;;;;;32.20;45.40;;;;;;6095549;23;19922;-80
2022/06/26 12:16:45;;;;;;;;;;;32.20;43.30;;;;;;6096609;23;20263;-81
2022/06/26 12:19:12;;;;;;;;;;;31.90;43.90;;;;;;6071652;23;19925;-81
2022/06/26 12:21:39;;;;;;;;;;;31.60;44.30;;;;;;6095543;23;19990;-81
2022/06/26 12:24:12;;;;;;;;;;;31.20;44.50;;;;;;6094549;23;20267;-80
2022/06/26 12:26:40;;;;;;;;;;;31.00;45.60;;;;;;6096387;23;19928;-81
2022/06/26 12:29:11;;;;;;;;;;;30.90;47.20;;;;;;6094664;23;19922;-80
2022/06/26 12:31:38;;;;;;;;;;;30.90;46.70;;;;;;6095496;23;20389;-81
2022/06/26 12:34:06;;;;;;;;;;;31.00;47.00;;;;;;6095515;23;19972;-80
2022/06/26 12:36:33;;;;;;;;;;;31.30;48.30;;;;;;6095633;23;19921;-81
2022/06/26 12:39:01;;;;;;;;;;;31.80;48.00;;;;;;6094476;23;19980;-81
2022/06/26 12:41:49;;;;;;;;;;;32.30;46.40;;;;;;6075363;23;20415;-81
2022/06/26 12:44:16;;;;;;;;;;;32.60;43.70;;;;;;6070687;23;19921;-81
2022/06/26 12:46:42;;;;;;;;;;;32.80;43.40;;;;;;6095493;23;20382;-81
2022/06/26 12:49:09;;;;;;;;;;;32.80;42.70;;;;;;6094612;23;20263;-81
2022/06/26 12:51:36;;;;;;;;;;;32.70;43.40;;;;;;6094376;23;20343;-81
2022/06/26 12:54:03;;;;;;;;;;;32.80;42.80;;;;;;6095691;23;19973;-79
2022/06/26 12:56:30;;;;;;;;;;;32.80;41.30;;;;;;6094983;23;20262;-81
2022/06/26 12:58:56;;;;;;;;;;;33.00;42.30;;;;;;6070549;23;19944;-81
2022/06/26 13:01:23;;;;;;;;;;;33.20;40.40;;;;;;6094986;23;19925;-81
2022/06/26 13:03:57;;;;;;;;;;;33.30;38.20;;;;;;6094635;23;19921;-81
2022/06/26 13:06:24;;;;;;;;;;;33.30;38.90;;;;;;6095334;23;19921;-82
2022/06/26 13:08:51;;;;;;;;;;;33.30;39.20;;;;;;6095322;23;19937;-81
2022/06/26 13:11:24;;;;;;;;;;;33.20;37.10;;;;;;6123215;23;19944;-81
2022/06/26 13:13:52;;;;;;;;;;;33.00;37.50;;;;;;6125519;23;19929;-81
2022/06/26 13:16:39;;;;;;;;;;;33.00;39.60;;;;;;6123148;23;19921;-81
2022/06/26 13:19:09;;;;;;;;;;;33.10;38.50;;;;;;6113282;23;20196;-81
2022/06/26 13:21:36;;;;;;;;;;;33.40;37.70;;;;;;6070470;23;19925;-80
2022/06/26 13:24:04;;;;;;;;;;;33.60;38.30;;;;;;6094761;23;20367;-81
2022/06/26 13:26:40;;;;;;;;;;;33.60;36.90;;;;;;6123683;23;19921;-81
2022/06/26 13:29:07;;;;;;;;;;;33.50;36.80;;;;;;6099355;23;19921;-80
2022/06/26 13:31:34;;;;;;;;;;;33.40;37.30;;;;;;6094271;23;19941;-81
2022/06/26 13:34:02;;;;;;;;;;;33.40;38.20;;;;;;6094635;23;20008;-81
2022/06/26 13:36:28;;;;;;;;;;;33.40;37.80;;;;;;6094005;23;19922;-81
2022/06/26 13:38:55;;;;;;;;;;;33.40;38.00;;;;;;6094372;23;19976;-81
2022/06/26 13:41:22;;;;;;;;;;;33.50;38.10;;;;;;6093847;23;19926;-81
2022/06/26 13:43:49;;;;;;;;;;;33.50;38.40;;;;;;6094116;23;19921;-81
2022/06/26 13:46:15;;;;;;;;;;;33.60;37.60;;;;;;6093401;23;19922;-81
2022/06/26 13:48:42;;;;;;;;;;;33.60;37.90;;;;;;6094611;23;19996;-81
2022/06/26 13:51:10;;;;;;;;;;;33.90;36.60;;;;;;6070647;23;19925;-81
2022/06/26 13:53:36;;;;;;;;;;;34.10;36.90;;;;;;6093695;23;19921;-81
2022/06/26 13:56:03;;;;;;;;;;;34.10;36.40;;;;;;6096004;23;19972;-81
2022/06/26 13:58:30;;;;;;;;;;;34.10;35.90;;;;;;6093843;23;19921;-81
2022/06/26 14:00:57;;;;;;;;;;;33.80;35.30;;;;;;6094393;23;20023;-81
2022/06/26 14:03:24;;;;;;;;;;;33.50;35.10;;;;;;6093826;23;19925;-81
2022/06/26 14:05:50;;;;;;;;;;;33.30;36.30;;;;;;6094345;23;19922;-81
2022/06/26 14:08:17;;;;;;;;;;;33.10;36.00;;;;;;6095091;23;20250;-81
2022/06/26 14:10:44;;;;;;;;;;;33.20;37.90;;;;;;6095536;23;20334;-81
2022/06/26 14:13:11;;;;;;;;;;;33.40;37.20;;;;;;6094312;23;20330;-81
2022/06/26 14:15:38;;;;;;;;;;;33.60;37.30;;;;;;6094024;23;19922;-81
2022/06/26 14:18:10;;;;;;;;;;;33.70;36.00;;;;;;6072006;23;19929;-81
2022/06/26 14:20:37;;;;;;;;;;;34.00;34.80;;;;;;6094843;23;19921;-81
2022/06/26 14:25:55;;;;;;;;;;;34.50;35.10;;;;;;6124258;23;19921;-81
2022/06/26 14:28:22;;;;;;;;;;;34.60;33.40;;;;;;6112264;23;19928;-81
2022/06/26 14:30:49;;;;;;;;;;;34.50;33.00;;;;;;6098594;23;19925;-81
2022/06/26 14:33:16;;;;;;;;;;;34.50;33.40;;;;;;6112995;23;20357;-81
2022/06/26 14:35:49;;;;;;;;;;;34.70;34.50;;;;;;6099374;23;20227;-81
2022/06/26 14:38:17;;;;;;;;;;;34.70;33.00;;;;;;6113466;23;19921;-81
2022/06/26 14:40:45;;;;;;;;;;;34.80;33.00;;;;;;6097104;23;19920;-81